GCLP/LPA METAR and TAF weather

Enter ICAO airport designator
Station Type Date Time Source
GCLP METAR 2019/06/26 18:00 UTC NOAA

GCLP 261800Z 02023KT 9999 FEW035 24/17 Q1018 NOSIG


Station Type Date Time Source
GCLP Decoded METAR 2019/06/26 18:00 UTC NOAA

Gran Canaria - Canary Islands, Spain (GCLP) 27-56N 015-23W 47M
Jun 26, 2019 - 02:00 PM EDT / 2019.06.26 1800 UTC
Wind: from the NNE (020 degrees) at 26 MPH (23 KT):0
Visibility: greater than 7 mile(s):0
Sky conditions: mostly clear
Temperature: 75 F (24 C)
Dew Point: 62 F (17 C)
Relative Humidity: 64%
Pressure (altimeter): 30.06 in. Hg (1018 hPa)
ob: GCLP 261800Z 02023KT 9999 FEW035 24/17 Q1018 NOSIG
cycle: 18

Station Type Date Time Source
GCLP TAF 2019/06/26 15:27 UTC NOAA

TAF GCLP 261400Z 2615/2715 03022KT 9999 SCT035 TX26/2714Z TN20/2706Z

Example: see airport list